Time;durP1;ratioP1;P1;durP2;ratioP2;P2;SDS_P1;SDS_P2;PMS_P1;PMS_P2;Temp;Humidity;BMP_temperature;BMP_pressure;BME280_temperature;BME280_humidity;BME280_pressure;Samples;Min_cycle;Max_cycle;Signal;HPM_P1;HPM_P2
2022/04/13 00:01:04;;;;;;;8.80;4.23;;;13.70;99.90;;;;;;5030631;28;20198;-77
2022/04/13 00:03:30;;;;;;;11.73;4.60;;;13.70;99.90;;;;;;5034234;28;20624;-77
2022/04/13 00:05:57;;;;;;;9.10;4.50;;;13.70;99.90;;;;;;5050259;28;20209;-77
2022/04/13 00:08:25;;;;;;;14.27;4.90;;;13.70;99.90;;;;;;5048815;28;20226;-78
2022/04/13 00:10:52;;;;;;;11.60;4.93;;;13.70;99.90;;;;;;5040121;28;20210;-77
2022/04/13 00:13:19;;;;;;;9.37;4.60;;;13.70;99.90;;;;;;5030240;28;20806;-76
2022/04/13 00:15:45;;;;;;;12.03;5.33;;;13.70;99.90;;;;;;5030210;28;20325;-76
2022/04/13 00:18:12;;;;;;;11.00;5.43;;;13.70;99.90;;;;;;5030393;28;20202;-76
2022/04/13 00:20:39;;;;;;;9.60;5.63;;;13.60;99.90;;;;;;5029943;28;20490;-76
2022/04/13 00:23:07;;;;;;;12.90;6.67;;;13.70;99.90;;;;;;5029520;28;20209;-78
2022/04/13 00:25:38;;;;;;;12.70;5.77;;;13.60;99.90;;;;;;5029651;28;20202;-77
2022/04/13 00:28:05;;;;;;;12.23;6.43;;;13.60;99.90;;;;;;5029175;28;20226;-78
2022/04/13 00:30:32;;;;;;;9.73;6.20;;;13.60;99.90;;;;;;5029081;28;20222;-77
2022/04/13 00:32:59;;;;;;;11.60;5.77;;;13.60;99.90;;;;;;5030227;28;20248;-78
2022/04/13 00:35:26;;;;;;;9.97;5.70;;;13.60;99.90;;;;;;5029510;28;20198;-78
2022/04/13 00:37:52;;;;;;;11.80;5.30;;;13.60;99.90;;;;;;5030352;28;20202;-78
2022/04/13 00:40:19;;;;;;;12.40;5.50;;;13.60;99.90;;;;;;5029974;28;20529;-77
2022/04/13 00:42:47;;;;;;;11.70;5.43;;;13.50;99.90;;;;;;5029364;28;20206;-77
2022/04/13 00:45:14;;;;;;;11.03;5.73;;;13.50;99.90;;;;;;5026440;28;20896;-77
2022/04/13 00:47:41;;;;;;;22.00;5.90;;;13.60;99.90;;;;;;5030986;28;20228;-77
2022/04/13 00:50:10;;;;;;;8.97;4.97;;;13.60;99.90;;;;;;5045867;28;20210;-77
2022/04/13 00:52:38;;;;;;;15.27;5.70;;;13.50;99.90;;;;;;5046580;28;20289;-77
2022/04/13 00:55:08;;;;;;;9.87;4.63;;;13.50;99.90;;;;;;5031178;28;20206;-78
2022/04/13 00:57:37;;;;;;;10.27;5.67;;;13.50;99.90;;;;;;5026630;28;20221;-77
2022/04/13 01:00:09;;;;;;;15.37;6.53;;;13.50;99.90;;;;;;5031225;28;20213;-77
2022/04/13 01:02:37;;;;;;;13.40;5.90;;;13.50;99.90;;;;;;5034872;28;20209;-77
2022/04/13 01:05:07;;;;;;;10.80;5.77;;;13.60;99.90;;;;;;5040528;28;20229;-77
2022/04/13 01:07:35;;;;;;;13.23;6.30;;;13.50;99.90;;;;;;5033577;28;20226;-76
2022/04/13 01:10:05;;;;;;;12.47;6.03;;;13.50;99.90;;;;;;5040063;28;20206;-77
2022/04/13 01:12:32;;;;;;;16.53;7.10;;;13.60;99.90;;;;;;5039109;28;20216;-77
2022/04/13 01:14:59;;;;;;;14.03;6.53;;;13.50;99.90;;;;;;5039109;28;20209;-77
2022/04/13 01:17:28;;;;;;;14.20;7.60;;;13.60;99.90;;;;;;5033918;28;20218;-77
2022/04/13 01:19:56;;;;;;;15.37;8.17;;;13.60;99.90;;;;;;5040943;28;20205;-78
2022/04/13 01:22:25;;;;;;;13.93;7.53;;;13.60;99.90;;;;;;5039717;28;20212;-76
2022/04/13 01:24:52;;;;;;;12.77;6.67;;;13.60;99.90;;;;;;5035587;28;20210;-77
2022/04/13 01:27:19;;;;;;;15.67;7.77;;;13.50;99.90;;;;;;5036886;28;20232;-77
2022/04/13 01:29:48;;;;;;;11.93;7.87;;;13.50;99.90;;;;;;5035033;28;20229;-76
2022/04/13 01:32:15;;;;;;;15.03;9.00;;;13.50;99.90;;;;;;5035274;28;20241;-77
2022/04/13 01:34:53;;;;;;;17.30;9.27;;;13.50;99.90;;;;;;5028504;28;20203;-76
2022/04/13 01:37:20;;;;;;;15.43;9.80;;;13.50;99.90;;;;;;5045942;28;20206;-77
2022/04/13 01:39:49;;;;;;;15.63;8.57;;;13.50;99.90;;;;;;5033789;28;20214;-77
2022/04/13 01:42:15;;;;;;;15.10;9.13;;;13.50;99.90;;;;;;5042520;28;20207;-77
2022/04/13 01:44:42;;;;;;;17.77;10.03;;;13.40;99.90;;;;;;5025990;28;20194;-78
2022/04/13 01:47:10;;;;;;;16.97;9.67;;;13.40;99.90;;;;;;5033610;28;20222;-78
2022/04/13 01:49:37;;;;;;;15.57;8.93;;;13.40;99.90;;;;;;5045185;28;20225;-77
2022/04/13 01:52:04;;;;;;;14.60;9.50;;;13.40;99.90;;;;;;5046076;28;20204;-78
2022/04/13 01:54:31;;;;;;;15.53;8.67;;;13.30;99.90;;;;;;5035221;28;20599;-77
2022/04/13 01:56:59;;;;;;;15.10;8.80;;;13.30;99.90;;;;;;5024331;28;20218;-77
2022/04/13 01:59:26;;;;;;;16.77;9.83;;;13.30;99.90;;;;;;5024502;28;20229;-78
2022/04/13 02:01:53;;;;;;;18.20;10.17;;;13.30;99.90;;;;;;5025101;28;20198;-78
2022/04/13 02:04:21;;;;;;;17.20;9.73;;;13.30;99.90;;;;;;5024821;28;20203;-78
2022/04/13 02:06:49;;;;;;;15.63;9.10;;;13.30;99.90;;;;;;5043307;28;20213;-78
2022/04/13 02:09:16;;;;;;;13.07;8.30;;;13.30;99.90;;;;;;5042416;28;20223;-78
2022/04/13 02:11:44;;;;;;;9.97;7.17;;;13.30;99.90;;;;;;5024820;28;20297;-77
2022/04/13 02:14:12;;;;;;;11.77;7.87;;;13.30;99.90;;;;;;5024322;28;21100;-78
2022/04/13 02:16:39;;;;;;;13.07;7.93;;;13.30;99.90;;;;;;5025574;28;20210;-77
2022/04/13 02:19:07;;;;;;;9.17;8.00;;;13.30;99.90;;;;;;5024988;28;20919;-79
2022/04/13 02:21:34;;;;;;;13.23;6.70;;;13.30;99.90;;;;;;5024551;28;20198;-78
2022/04/13 02:24:01;;;;;;;14.87;7.73;;;13.30;99.90;;;;;;5024855;28;20265;-78
2022/04/13 02:26:28;;;;;;;9.53;6.83;;;13.30;99.90;;;;;;5024045;28;20206;-79
2022/04/13 02:28:55;;;;;;;15.27;8.40;;;13.20;99.90;;;;;;5024665;28;20253;-78
2022/04/13 02:31:23;;;;;;;9.83;7.60;;;13.10;99.90;;;;;;5009508;28;20206;-76
2022/04/13 02:33:53;;;;;;;18.60;10.03;;;13.10;99.90;;;;;;5024834;28;20246;-79
2022/04/13 02:36:20;;;;;;;14.87;9.17;;;13.10;99.90;;;;;;5023597;28;20214;-77
2022/04/13 02:38:46;;;;;;;12.03;8.20;;;13.10;99.90;;;;;;5024062;28;20202;-78
2022/04/13 02:41:13;;;;;;;15.07;7.83;;;13.00;99.90;;;;;;5024186;28;20201;-77
2022/04/13 02:43:41;;;;;;;14.67;8.33;;;13.10;99.90;;;;;;5024286;28;20242;-77
2022/04/13 02:46:08;;;;;;;14.93;7.60;;;13.10;99.90;;;;;;5025019;28;20645;-76
2022/04/13 02:48:36;;;;;;;14.97;7.57;;;13.00;99.90;;;;;;5035586;28;20229;-78
2022/04/13 02:51:02;;;;;;;12.80;6.93;;;13.10;99.90;;;;;;5041630;28;20204;-77
2022/04/13 02:53:30;;;;;;;15.53;7.70;;;13.10;99.90;;;;;;5023882;28;20202;-78
2022/04/13 02:55:57;;;;;;;11.27;6.93;;;13.10;99.90;;;;;;5024249;28;20261;-78
2022/04/13 02:58:24;;;;;;;16.50;7.83;;;13.10;99.90;;;;;;5023916;28;20214;-78
2022/04/13 03:00:51;;;;;;;14.40;8.33;;;13.10;99.90;;;;;;5024249;28;20378;-78
2022/04/13 03:03:17;;;;;;;17.60;9.23;;;13.10;99.90;;;;;;5023497;28;20229;-78
2022/04/13 03:05:45;;;;;;;19.50;8.67;;;13.10;99.90;;;;;;5024597;28;20199;-78
2022/04/13 03:08:12;;;;;;;14.13;7.97;;;13.10;99.90;;;;;;5023525;28;20594;-76
2022/04/13 03:10:39;;;;;;;11.20;7.27;;;13.00;99.90;;;;;;5024437;28;20217;-78
2022/04/13 03:13:07;;;;;;;17.30;8.30;;;13.00;99.90;;;;;;5024170;28;20203;-78
2022/04/13 03:15:33;;;;;;;16.87;8.10;;;12.90;99.90;;;;;;5023961;28;20504;-77
2022/04/13 03:18:00;;;;;;;14.17;8.27;;;12.90;99.90;;;;;;5024174;28;20210;-78
2022/04/13 03:20:27;;;;;;;15.17;8.60;;;12.90;99.90;;;;;;5024137;28;20195;-77
2022/04/13 03:22:55;;;;;;;18.27;9.00;;;12.90;99.90;;;;;;5023970;28;20681;-78
2022/04/13 03:25:22;;;;;;;12.37;8.40;;;12.90;99.90;;;;;;5023687;28;20213;-78
2022/04/13 03:27:48;;;;;;;14.40;9.03;;;12.80;99.90;;;;;;5024073;28;20195;-79
2022/04/13 03:30:16;;;;;;;13.23;8.03;;;12.90;99.90;;;;;;5023713;28;20229;-78
2022/04/13 03:32:43;;;;;;;15.03;8.30;;;12.80;99.90;;;;;;5023459;28;20307;-78
2022/04/13 03:35:12;;;;;;;16.40;9.20;;;12.80;99.90;;;;;;5023499;28;20211;-77
2022/04/13 03:37:39;;;;;;;20.70;10.63;;;12.80;99.90;;;;;;5023705;28;20236;-78
2022/04/13 03:40:09;;;;;;;21.23;9.47;;;12.80;99.90;;;;;;5023215;28;20206;-78
2022/04/13 03:42:37;;;;;;;17.17;9.27;;;12.80;99.90;;;;;;5023942;28;20203;-78
2022/04/13 03:45:05;;;;;;;17.40;9.83;;;12.80;99.90;;;;;;5023661;28;20206;-77
2022/04/13 03:47:32;;;;;;;15.80;9.40;;;12.70;99.90;;;;;;5025538;28;20622;-78
2022/04/13 03:49:59;;;;;;;15.30;9.50;;;12.70;99.90;;;;;;5038671;28;20308;-79
2022/04/13 03:52:25;;;;;;;16.33;9.37;;;12.70;99.90;;;;;;5022981;28;20211;-78
2022/04/13 03:54:52;;;;;;;19.73;11.00;;;12.70;99.90;;;;;;5023769;28;20680;-78
2022/04/13 03:57:20;;;;;;;19.97;10.30;;;12.60;99.90;;;;;;5023487;28;20251;-78
2022/04/13 03:59:47;;;;;;;17.27;10.20;;;12.60;99.90;;;;;;5023078;28;20198;-78
2022/04/13 04:02:16;;;;;;;19.70;10.00;;;12.60;99.90;;;;;;5021870;28;20207;-78
2022/04/13 04:04:43;;;;;;;17.53;9.97;;;12.60;99.90;;;;;;5022935;28;20210;-78
2022/04/13 04:07:09;;;;;;;14.70;9.63;;;12.60;99.90;;;;;;5023309;28;20218;-78
2022/04/13 04:09:36;;;;;;;18.90;10.13;;;12.50;99.90;;;;;;5023033;28;20226;-78
2022/04/13 04:12:04;;;;;;;17.03;10.37;;;12.50;99.90;;;;;;5022721;28;20347;-78
2022/04/13 04:14:32;;;;;;;13.40;9.07;;;12.50;99.90;;;;;;5021844;28;20206;-77
2022/04/13 04:16:58;;;;;;;24.83;9.93;;;12.50;99.90;;;;;;5024307;28;20304;-77
2022/04/13 04:19:25;;;;;;;16.20;9.87;;;12.50;99.90;;;;;;5039555;28;20221;-79
2022/04/13 04:21:54;;;;;;;16.17;11.10;;;12.50;99.90;;;;;;5047073;28;20202;-78
2022/04/13 04:24:21;;;;;;;17.00;10.13;;;12.50;99.90;;;;;;5042699;28;20284;-78
2022/04/13 04:26:48;;;;;;;17.90;10.83;;;12.50;99.90;;;;;;5027619;28;20202;-78
2022/04/13 04:29:14;;;;;;;17.53;10.43;;;12.50;99.90;;;;;;5026565;28;20222;-79
2022/04/13 04:31:53;;;;;;;22.73;11.03;;;12.50;99.90;;;;;;5032180;28;20260;-78
2022/04/13 04:34:21;;;;;;;19.07;11.23;;;12.50;99.90;;;;;;5045701;28;20252;-78
2022/04/13 04:36:48;;;;;;;18.20;10.87;;;12.50;99.90;;;;;;5045968;28;20213;-78
2022/04/13 04:39:15;;;;;;;18.27;11.30;;;12.40;99.90;;;;;;5026955;28;20206;-78
2022/04/13 04:41:42;;;;;;;17.70;11.67;;;12.40;99.90;;;;;;5026497;28;20218;-78
2022/04/13 04:44:10;;;;;;;17.47;10.63;;;12.40;99.90;;;;;;5046726;28;20222;-78
2022/04/13 04:46:37;;;;;;;22.73;12.83;;;12.40;99.90;;;;;;5038489;28;20225;-78
2022/04/13 04:49:06;;;;;;;17.83;11.30;;;12.40;99.90;;;;;;5041432;28;20221;-78
2022/04/13 04:51:32;;;;;;;16.90;9.83;;;12.40;99.90;;;;;;5045997;28;20620;-78
2022/04/13 04:53:59;;;;;;;17.63;11.40;;;12.40;99.90;;;;;;5036020;28;20210;-78
2022/04/13 04:56:26;;;;;;;18.57;11.07;;;12.30;99.90;;;;;;5025687;28;20253;-78
2022/04/13 04:58:53;;;;;;;15.47;10.53;;;12.30;99.90;;;;;;5025851;28;20773;-77
2022/04/13 05:01:20;;;;;;;20.03;10.07;;;12.30;99.90;;;;;;5026008;28;20209;-77
2022/04/13 05:03:49;;;;;;;13.00;9.60;;;12.20;99.90;;;;;;5026569;28;20203;-78
2022/04/13 05:06:21;;;;;;;18.63;9.47;;;12.20;99.90;;;;;;5026826;28;20207;-78
2022/04/13 05:08:47;;;;;;;19.47;10.20;;;12.20;99.90;;;;;;5025822;28;20269;-77
2022/04/13 05:11:15;;;;;;;18.77;11.10;;;12.20;99.90;;;;;;5025571;28;20266;-78
2022/04/13 05:13:42;;;;;;;15.30;9.30;;;12.10;99.90;;;;;;5026676;28;20210;-79
2022/04/13 05:16:08;;;;;;;15.73;9.83;;;12.10;99.90;;;;;;5026550;28;20213;-78
2022/04/13 05:18:35;;;;;;;13.67;9.67;;;12.10;99.90;;;;;;5025677;28;20203;-78
2022/04/13 05:21:02;;;;;;;21.03;9.87;;;12.00;99.90;;;;;;5026102;28;20199;-78
2022/04/13 05:23:30;;;;;;;18.30;10.03;;;12.00;99.90;;;;;;5024929;28;20217;-77
2022/04/13 05:25:57;;;;;;;14.10;10.53;;;12.00;99.90;;;;;;5025653;28;20191;-79
2022/04/13 05:28:24;;;;;;;16.67;10.20;;;12.00;99.90;;;;;;5025685;28;20249;-78
2022/04/13 05:30:50;;;;;;;15.97;10.23;;;12.00;99.90;;;;;;5025268;28;20230;-78
2022/04/13 05:33:17;;;;;;;14.43;10.33;;;12.00;99.90;;;;;;5025741;28;20246;-78
2022/04/13 05:35:45;;;;;;;15.53;9.73;;;11.90;99.90;;;;;;5026126;28;20210;-78
2022/04/13 05:38:12;;;;;;;16.83;10.17;;;11.90;99.90;;;;;;5025325;28;20242;-77
2022/04/13 05:40:40;;;;;;;20.07;11.03;;;12.00;99.90;;;;;;5025857;28;20215;-78
2022/04/13 05:43:07;;;;;;;20.73;10.73;;;12.00;99.90;;;;;;5026342;28;20207;-78
2022/04/13 05:45:34;;;;;;;16.43;10.00;;;12.00;99.90;;;;;;5024986;28;20202;-79
2022/04/13 05:48:01;;;;;;;21.20;10.90;;;12.00;99.90;;;;;;5032085;28;20210;-77
2022/04/13 05:50:28;;;;;;;20.57;11.07;;;11.90;99.90;;;;;;5041658;28;20258;-78
2022/04/13 05:52:55;;;;;;;14.07;10.60;;;12.00;99.90;;;;;;5025022;28;20206;-77
2022/04/13 05:55:21;;;;;;;20.33;11.20;;;12.00;99.90;;;;;;5025617;28;20191;-78
2022/04/13 05:57:50;;;;;;;15.47;9.80;;;12.00;99.90;;;;;;5025605;28;20513;-78
2022/04/13 06:00:17;;;;;;;19.70;10.53;;;12.10;99.90;;;;;;5025107;28;20635;-78
2022/04/13 06:02:44;;;;;;;18.83;11.13;;;12.20;99.90;;;;;;5025377;28;20828;-78
2022/04/13 06:05:11;;;;;;;18.90;11.13;;;12.20;99.90;;;;;;5025394;28;20214;-77
2022/04/13 06:07:38;;;;;;;17.50;11.67;;;12.30;99.90;;;;;;5025215;28;20202;-77
2022/04/13 06:10:06;;;;;;;21.67;10.93;;;12.40;99.90;;;;;;5025114;28;20226;-78
2022/04/13 06:12:33;;;;;;;24.00;12.53;;;12.50;99.90;;;;;;5025101;28;20586;-78
2022/04/13 06:15:09;;;;;;;20.27;11.13;;;12.50;99.90;;;;;;5023852;28;20201;-77
2022/04/13 06:17:36;;;;;;;16.20;10.77;;;12.50;99.90;;;;;;5024868;28;20527;-78
2022/04/13 06:20:04;;;;;;;21.40;11.27;;;12.60;99.90;;;;;;5024634;28;20220;-78
2022/04/13 06:22:32;;;;;;;18.37;10.70;;;12.60;99.90;;;;;;5024801;28;20257;-78
2022/04/13 06:24:58;;;;;;;16.13;10.17;;;12.60;99.90;;;;;;5025114;28;20296;-78
2022/04/13 06:27:25;;;;;;;16.63;11.17;;;12.70;99.90;;;;;;5023846;28;20202;-78
2022/04/13 06:29:52;;;;;;;15.47;10.73;;;12.70;99.90;;;;;;5024228;28;20222;-78
2022/04/13 06:32:20;;;;;;;18.67;11.63;;;12.70;99.90;;;;;;5023737;28;20298;-78
2022/04/13 06:34:47;;;;;;;20.10;11.80;;;12.80;99.90;;;;;;5024507;28;20217;-78
2022/04/13 06:37:14;;;;;;;18.67;9.87;;;12.80;99.90;;;;;;5024862;28;20211;-77
2022/04/13 06:39:41;;;;;;;20.13;11.10;;;12.80;99.90;;;;;;5024568;28;20426;-78
2022/04/13 06:42:09;;;;;;;21.40;10.23;;;12.80;99.90;;;;;;5022940;28;20513;-78
2022/04/13 06:44:36;;;;;;;16.37;9.93;;;12.80;99.90;;;;;;5023210;28;20202;-78
2022/04/13 06:47:03;;;;;;;19.20;10.60;;;12.80;99.90;;;;;;5024881;28;20537;-78
2022/04/13 06:49:31;;;;;;;21.67;10.53;;;12.90;99.90;;;;;;5042076;28;20210;-78
2022/04/13 06:51:58;;;;;;;18.60;10.73;;;12.90;99.90;;;;;;5025039;28;20211;-77
2022/04/13 06:54:27;;;;;;;15.80;10.43;;;12.90;99.90;;;;;;5023976;28;20381;-78
2022/04/13 06:56:54;;;;;;;14.80;8.77;;;12.90;99.90;;;;;;4999885;28;20535;-78
2022/04/13 06:59:21;;;;;;;17.07;10.33;;;13.00;99.90;;;;;;5023351;28;20324;-77
2022/04/13 07:01:48;;;;;;;20.83;10.83;;;13.00;99.90;;;;;;5023497;28;21017;-78
2022/04/13 07:04:14;;;;;;;18.20;10.37;;;13.00;99.90;;;;;;5019707;28;20221;-77
2022/04/13 07:06:43;;;;;;;18.60;10.10;;;13.10;99.90;;;;;;5035317;28;20217;-78
2022/04/13 07:09:09;;;;;;;20.57;11.57;;;13.10;99.90;;;;;;5023104;28;20781;-77
2022/04/13 07:11:36;;;;;;;24.93;11.47;;;13.10;99.90;;;;;;5023294;28;20230;-77
2022/04/13 07:14:03;;;;;;;19.10;9.30;;;13.20;99.90;;;;;;5020638;28;20209;-78
2022/04/13 07:16:30;;;;;;;16.27;9.63;;;13.20;99.90;;;;;;5021618;28;20214;-77
2022/04/13 07:18:57;;;;;;;17.27;10.20;;;13.30;99.90;;;;;;5024434;28;20206;-77
2022/04/13 07:21:24;;;;;;;17.80;9.67;;;13.50;99.90;;;;;;5023610;28;20202;-76
2022/04/13 07:23:52;;;;;;;16.07;9.00;;;13.60;99.90;;;;;;5023359;28;20218;-77
2022/04/13 07:26:19;;;;;;;15.80;8.73;;;13.80;99.90;;;;;;5023901;28;20206;-77
2022/04/13 07:28:46;;;;;;;14.77;9.07;;;13.90;99.90;;;;;;5023803;28;20898;-77
2022/04/13 07:31:13;;;;;;;10.90;7.57;;;14.10;99.90;;;;;;5025601;28;20230;-77
2022/04/13 07:33:39;;;;;;;12.73;7.50;;;14.20;99.90;;;;;;5024056;28;20242;-77
2022/04/13 07:36:06;;;;;;;16.77;8.03;;;14.40;99.90;;;;;;5023182;28;20203;-77
2022/04/13 07:38:33;;;;;;;13.33;7.70;;;14.60;99.90;;;;;;5023031;28;20625;-76
2022/04/13 07:41:02;;;;;;;15.73;7.70;;;14.70;99.90;;;;;;5023533;28;20195;-78
2022/04/13 07:43:28;;;;;;;14.17;6.73;;;14.80;99.90;;;;;;5023424;28;20310;-77
2022/04/13 07:45:55;;;;;;;13.87;6.93;;;14.80;99.90;;;;;;5021774;28;20248;-77
2022/04/13 07:48:22;;;;;;;13.50;6.97;;;14.90;99.90;;;;;;5031924;28;20221;-77
2022/04/13 07:50:49;;;;;;;10.20;5.93;;;14.90;99.90;;;;;;5022427;28;20222;-77
2022/04/13 07:53:16;;;;;;;21.70;7.43;;;14.90;99.90;;;;;;5030108;22;20249;-77
2022/04/13 07:55:43;;;;;;;15.00;6.70;;;14.90;99.90;;;;;;5009681;28;20702;-77
2022/04/13 07:58:11;;;;;;;11.33;6.97;;;15.00;99.90;;;;;;5007421;28;20215;-77
2022/04/13 08:00:38;;;;;;;12.63;6.63;;;15.00;99.90;;;;;;5006936;28;20505;-77
2022/04/13 08:03:05;;;;;;;11.00;5.83;;;15.10;99.90;;;;;;5006587;28;20218;-77
2022/04/13 08:05:32;;;;;;;12.88;6.63;;;15.30;99.90;;;;;;5005830;28;20890;-78
2022/04/13 08:07:59;;;;;;;13.90;7.37;;;15.40;99.90;;;;;;5006680;28;20215;-76
2022/04/13 08:10:26;;;;;;;9.67;6.10;;;15.60;99.90;;;;;;5006627;28;20237;-77
2022/04/13 08:12:53;;;;;;;16.13;6.20;;;15.60;99.90;;;;;;5006417;28;20285;-78
2022/04/13 08:15:21;;;;;;;12.73;6.53;;;15.70;99.90;;;;;;5006395;28;20211;-78
2022/04/13 08:17:49;;;;;;;9.50;5.95;;;15.60;99.90;;;;;;5006328;28;20214;-76
2022/04/13 08:20:16;;;;;;;17.50;7.07;;;15.50;99.90;;;;;;5006559;28;20207;-77
2022/04/13 08:22:44;;;;;;;11.03;6.47;;;15.50;99.90;;;;;;5006342;28;20222;-78
2022/04/13 08:25:12;;;;;;;16.23;6.97;;;15.40;99.90;;;;;;5006473;28;20211;-79
2022/04/13 08:27:39;;;;;;;10.10;6.40;;;15.50;99.90;;;;;;5009068;28;20230;-78
2022/04/13 08:30:07;;;;;;;14.77;7.13;;;15.50;99.90;;;;;;5007448;28;20238;-79
2022/04/13 08:32:36;;;;;;;13.52;6.68;;;15.60;99.90;;;;;;5006620;28;20222;-79
2022/04/13 08:35:05;;;;;;;13.15;6.88;;;15.70;99.90;;;;;;5006217;28;20215;-79
2022/04/13 08:37:34;;;;;;;12.88;6.60;;;15.80;99.90;;;;;;5006074;28;20353;-79
2022/04/13 08:40:01;;;;;;;13.00;6.80;;;15.80;99.90;;;;;;5006746;28;20218;-79
2022/04/13 08:42:39;;;;;;;12.93;6.55;;;15.80;99.90;;;;;;5022620;28;20316;-79
2022/04/13 08:45:12;;;;;;;12.90;6.30;;;15.80;99.90;;;;;;5026000;28;20214;-80
2022/04/13 08:47:44;;;;;;;14.35;6.80;;;15.90;99.90;;;;;;5025651;28;20226;-78
2022/04/13 08:50:12;;;;;;;14.60;7.30;;;16.00;99.90;;;;;;5024065;28;20246;-80
2022/04/13 08:52:40;;;;;;;11.20;6.25;;;16.10;99.90;;;;;;5005939;28;20345;-78
2022/04/13 08:55:09;;;;;;;13.15;6.45;;;16.10;99.90;;;;;;5006162;28;20211;-77
2022/04/13 08:57:38;;;;;;;13.60;6.90;;;16.20;99.90;;;;;;5006273;28;20226;-77
2022/04/13 09:00:13;;;;;;;14.18;7.00;;;16.40;99.90;;;;;;5008075;28;20269;-77
2022/04/13 09:03:13;;;;;;;13.35;6.07;;;16.60;99.90;;;;;;5006364;28;20209;-78
2022/04/13 09:05:41;;;;;;;13.43;6.90;;;16.80;99.90;;;;;;5005213;28;20218;-77
2022/04/13 09:08:13;;;;;;;17.13;6.32;;;16.90;99.90;;;;;;5006362;28;20222;-80
2022/04/13 09:10:41;;;;;;;19.10;7.68;;;17.10;99.90;;;;;;5005462;28;20242;-78
2022/04/13 09:13:10;;;;;;;12.15;6.45;;;17.30;99.90;;;;;;5006658;28;20220;-79
2022/04/13 09:15:39;;;;;;;11.57;5.47;;;17.50;99.90;;;;;;5005424;28;20254;-77
2022/04/13 09:18:08;;;;;;;11.85;5.57;;;17.70;99.90;;;;;;5005527;28;20546;-78
2022/04/13 09:20:36;;;;;;;10.10;4.65;;;17.70;99.90;;;;;;5005790;28;20584;-80
2022/04/13 09:23:03;;;;;;;12.93;5.57;;;17.90;99.90;;;;;;5005300;28;20207;-78
2022/04/13 09:25:31;;;;;;;11.25;4.60;;;18.00;99.90;;;;;;5005143;28;20215;-78
2022/04/13 09:27:59;;;;;;;11.82;5.03;;;17.90;99.90;;;;;;5006171;28;20207;-77
2022/04/13 09:30:26;;;;;;;11.23;5.15;;;17.90;99.90;;;;;;5004971;28;20270;-78
2022/04/13 09:32:53;;;;;;;10.23;4.90;;;17.90;99.90;;;;;;5004673;28;20200;-79
2022/04/13 09:35:22;;;;;;;9.68;4.97;;;17.70;99.90;;;;;;5005594;28;20564;-77
2022/04/13 09:37:49;;;;;;;13.02;5.18;;;17.80;99.90;;;;;;5005454;28;20526;-78
2022/04/13 09:40:35;;;;;;;9.20;5.15;;;17.80;99.90;;;;;;5005471;28;20199;-79
2022/04/13 09:43:10;;;;;;;11.40;5.38;;;17.80;99.90;;;;;;5005847;28;20290;-77
2022/04/13 09:45:41;;;;;;;11.85;5.10;;;17.80;99.90;;;;;;5004792;28;20207;-79
2022/04/13 09:48:10;;;;;;;9.85;4.70;;;17.80;99.90;;;;;;5010919;28;20207;-79
2022/04/13 09:50:39;;;;;;;10.20;5.38;;;17.80;99.90;;;;;;5024386;28;20226;-79
2022/04/13 09:53:07;;;;;;;10.88;5.90;;;18.00;99.90;;;;;;5005665;28;20305;-78
2022/04/13 09:55:41;;;;;;;13.75;5.55;;;18.00;99.90;;;;;;5004998;28;20223;-79
2022/04/13 09:58:12;;;;;;;11.05;4.93;;;18.10;99.90;;;;;;5004450;28;20618;-79
2022/04/13 10:00:39;;;;;;;10.27;4.85;;;18.10;99.90;;;;;;5005902;28;20222;-78
2022/04/13 10:03:12;;;;;;;7.78;4.45;;;18.00;99.90;;;;;;5004511;28;20203;-79
2022/04/13 10:05:43;;;;;;;11.30;4.95;;;17.80;99.90;;;;;;5005517;28;20203;-79
2022/04/13 10:08:11;;;;;;;8.52;4.28;;;17.70;99.90;;;;;;5002110;28;20235;-79
2022/04/13 10:10:42;;;;;;;10.35;4.90;;;17.40;99.90;;;;;;5006313;28;20603;-79
2022/04/13 10:13:09;;;;;;;9.20;4.22;;;17.30;99.90;;;;;;5006769;28;20315;-79
2022/04/13 10:15:36;;;;;;;10.15;4.53;;;17.10;99.90;;;;;;5005813;28;20218;-78
2022/04/13 10:18:05;;;;;;;11.07;4.90;;;17.00;99.90;;;;;;5004315;28;20507;-79
2022/04/13 10:20:47;;;;;;;15.68;5.53;;;16.90;99.90;;;;;;5013766;28;20214;-79
2022/04/13 10:23:15;;;;;;;7.75;4.70;;;16.90;99.90;;;;;;5022835;28;20701;-79
2022/04/13 10:25:43;;;;;;;10.23;4.70;;;16.90;99.90;;;;;;5015773;28;20203;-80
2022/04/13 10:28:12;;;;;;;13.52;4.78;;;16.80;99.90;;;;;;5004817;28;20214;-79
2022/04/13 10:30:42;;;;;;;8.65;4.95;;;16.80;99.90;;;;;;5006191;28;20245;-79
2022/04/13 10:33:10;;;;;;;8.93;4.75;;;16.70;99.90;;;;;;5005147;28;20205;-79
2022/04/13 10:35:38;;;;;;;8.35;4.70;;;16.70;99.90;;;;;;5004982;28;20207;-79
2022/04/13 10:38:07;;;;;;;6.97;4.25;;;16.60;99.90;;;;;;5005489;28;20203;-79
2022/04/13 10:40:36;;;;;;;12.57;5.78;;;16.60;99.90;;;;;;5017409;28;20214;-79
2022/04/13 10:43:05;;;;;;;13.00;6.38;;;16.50;99.90;;;;;;5017150;28;20503;-79
2022/04/13 10:45:34;;;;;;;9.43;4.97;;;16.50;99.90;;;;;;5016123;28;20554;-79
2022/04/13 10:48:04;;;;;;;9.40;4.60;;;16.40;99.90;;;;;;5017352;28;20207;-80
2022/04/13 10:50:39;;;;;;;7.90;4.20;;;16.30;99.90;;;;;;5010154;28;20222;-81
2022/04/13 10:53:19;;;;;;;11.77;4.68;;;16.40;99.90;;;;;;5006087;28;20260;-80
2022/04/13 10:55:58;;;;;;;11.10;5.30;;;16.50;99.90;;;;;;5005105;28;20230;-80
2022/04/13 10:58:43;;;;;;;9.75;5.18;;;16.50;99.90;;;;;;5024145;28;20283;-80
2022/04/13 11:01:13;;;;;;;9.93;5.47;;;16.60;99.90;;;;;;5025920;28;20582;-79
2022/04/13 11:03:41;;;;;;;11.35;5.00;;;16.70;99.90;;;;;;5004258;28;20237;-80
2022/04/13 11:06:09;;;;;;;14.00;5.97;;;16.80;99.90;;;;;;5005310;28;20208;-81
2022/04/13 11:08:46;;;;;;;11.57;5.35;;;16.70;99.90;;;;;;5005153;28;20211;-80
2022/04/13 11:11:18;;;;;;;12.70;4.20;;;16.80;99.90;;;;;;5005207;28;20492;-80
2022/04/13 11:13:47;;;;;;;11.52;4.88;;;16.90;99.90;;;;;;5005306;28;20203;-80
2022/04/13 11:16:16;;;;;;;8.90;4.63;;;17.00;99.90;;;;;;5005439;28;20316;-80
2022/04/13 11:18:43;;;;;;;12.85;4.70;;;17.20;99.90;;;;;;5005063;28;20207;-82
2022/04/13 11:21:11;;;;;;;9.38;3.83;;;17.40;99.90;;;;;;5006084;28;20206;-80
2022/04/13 11:23:51;;;;;;;7.05;3.83;;;17.50;99.90;;;;;;5005925;28;20230;-83
2022/04/13 11:26:26;;;;;;;11.77;4.82;;;17.60;99.90;;;;;;5005471;28;20202;-81
2022/04/13 11:29:16;;;;;;;8.45;3.75;;;17.70;99.90;;;;;;5011993;28;20299;-83
2022/04/13 11:32:10;;;;;;;7.32;3.72;;;17.70;99.90;;;;;;5025471;28;20237;-80
2022/04/13 11:34:42;;;;;;;7.00;4.13;;;17.70;99.90;;;;;;5014229;28;20222;-81
2022/04/13 11:37:11;;;;;;;12.68;4.40;;;17.80;99.90;;;;;;5005784;28;20211;-79
2022/04/13 11:39:47;;;;;;;12.27;4.75;;;17.90;99.90;;;;;;5005429;28;20611;-78
2022/04/13 11:42:16;;;;;;;8.25;4.38;;;18.00;99.90;;;;;;5003903;28;20222;-78
2022/04/13 11:44:50;;;;;;;10.98;4.72;;;18.20;99.90;;;;;;5004899;28;20572;-80
2022/04/13 11:47:18;;;;;;;13.23;5.80;;;18.30;99.90;;;;;;5006346;28;20202;-79
2022/04/13 11:50:00;;;;;;;9.77;4.70;;;18.40;99.90;;;;;;5024252;28;20211;-79
2022/04/13 11:52:42;;;;;;;9.95;4.05;;;18.40;99.90;;;;;;5015089;28;20230;-77
2022/04/13 11:55:18;;;;;;;6.15;3.72;;;18.60;99.90;;;;;;5025106;28;20210;-80
2022/04/13 11:58:22;;;;;;;7.95;3.60;;;18.50;99.90;;;;;;5032523;28;20213;-78
2022/04/13 12:01:00;;;;;;;11.43;3.92;;;18.60;99.90;;;;;;5016364;28;20289;-78
2022/04/13 12:03:30;;;;;;;8.60;3.70;;;18.60;99.90;;;;;;5011089;28;20821;-77
2022/04/13 12:05:58;;;;;;;10.18;3.45;;;18.60;99.90;;;;;;5008919;28;20249;-78
2022/04/13 12:08:26;;;;;;;8.35;3.22;;;18.60;99.90;;;;;;5015146;28;20203;-77
2022/04/13 12:10:58;;;;;;;8.15;3.92;;;18.60;99.90;;;;;;5013494;28;20235;-80
2022/04/13 12:13:26;;;;;;;7.90;3.50;;;18.60;99.90;;;;;;5020483;28;20673;-79
2022/04/13 12:15:54;;;;;;;8.02;3.42;;;18.70;99.90;;;;;;5018641;28;20199;-81
2022/04/13 12:18:23;;;;;;;6.93;3.10;;;18.90;99.90;;;;;;5020248;28;20199;-79
2022/04/13 12:20:50;;;;;;;9.57;3.83;;;18.90;99.90;;;;;;5015389;28;20210;-79
2022/04/13 12:23:23;;;;;;;9.18;3.28;;;19.00;99.90;;;;;;5016903;28;20206;-79
2022/04/13 12:25:52;;;;;;;6.80;3.42;;;18.90;99.90;;;;;;5011199;28;20564;-78
2022/04/13 12:28:22;;;;;;;6.88;3.20;;;18.80;99.90;;;;;;5015739;28;20918;-79
2022/04/13 12:30:57;;;;;;;5.57;3.70;;;18.70;99.90;;;;;;5018093;28;20313;-81
2022/04/13 12:33:25;;;;;;;12.48;4.70;;;18.70;99.90;;;;;;5018258;28;20241;-81
2022/04/13 12:35:54;;;;;;;4.80;3.33;;;18.70;99.90;;;;;;5013251;28;20203;-78
2022/04/13 12:38:25;;;;;;;9.93;3.80;;;18.60;99.90;;;;;;5012745;28;20211;-80
2022/04/13 12:41:10;;;;;;;7.15;3.20;;;18.60;99.90;;;;;;5018724;28;20218;-80
2022/04/13 12:43:40;;;;;;;7.53;3.17;;;18.70;99.90;;;;;;5008703;28;20203;-80